Time;durP1;ratioP1;P1;durP2;ratioP2;P2;SDS_P1;SDS_P2;PMS_P1;PMS_P2;Temp;Humidity;BMP_temperature;BMP_pressure;BME280_temperature;BME280_humidity;BME280_pressure;Samples;Min_cycle;Max_cycle;Signal;HPM_P1;HPM_P2
2021/09/14 00:02:17;;;;;;;;;9.00;6.00;;;;;20.84;59.40;100821.53;4997900;28;45291;-74
2021/09/14 00:04:43;;;;;;;;;8.00;6.00;;;;;20.82;59.64;100828.88;5003024;28;45607;-74
2021/09/14 00:07:08;;;;;;;;;8.00;6.00;;;;;20.81;59.67;100821.03;4984660;28;45990;-77
2021/09/14 00:09:33;;;;;;;;;5.33;5.33;;;;;20.73;59.76;100813.91;4983253;28;45414;-77
2021/09/14 00:11:59;;;;;;;;;7.33;7.00;;;;;20.69;59.88;100800.09;4992116;28;45593;-76
2021/09/14 00:14:25;;;;;;;;;7.00;6.67;;;;;20.70;59.77;100806.28;4994968;28;46902;-75
2021/09/14 00:16:51;;;;;;;;;6.00;5.33;;;;;20.68;59.61;100810.94;4986561;28;45423;-76
2021/09/14 00:19:17;;;;;;;;;7.00;5.67;;;;;20.66;59.90;100807.63;4993602;28;45503;-77
2021/09/14 00:21:43;;;;;;;;;6.33;5.00;;;;;20.66;59.98;100799.63;4989112;28;45326;-78
2021/09/14 00:24:08;;;;;;;;;9.33;7.67;;;;;20.67;60.46;100803.97;4989750;28;45422;-76
2021/09/14 00:26:33;;;;;;;;;6.00;6.00;;;;;20.67;60.34;100803.97;4994810;28;45405;-75
2021/09/14 00:29:00;;;;;;;;;5.67;5.67;;;;;20.65;59.91;100805.97;4994456;28;45494;-77
2021/09/14 00:31:26;;;;;;;;;5.00;5.00;;;;;20.62;60.17;100807.16;4979650;28;45496;-77
2021/09/14 00:33:51;;;;;;;;;10.00;7.00;;;;;20.59;60.25;100805.66;4988815;28;45468;-74
2021/09/14 00:36:16;;;;;;;;;7.00;7.00;;;;;20.57;60.42;100801.50;4982354;28;52588;-75
2021/09/14 00:38:42;;;;;;;;;9.33;6.33;;;;;20.55;60.09;100807.03;4981778;28;45495;-76
2021/09/14 00:41:07;;;;;;;;;6.33;6.33;;;;;20.50;60.54;100801.41;4981472;28;45390;-76
2021/09/14 00:43:33;;;;;;;;;9.00;8.00;;;;;20.47;60.29;100801.72;4981013;28;46027;-76
2021/09/14 00:45:58;;;;;;;;;6.33;5.33;;;;;20.44;60.48;100807.44;4994260;28;45275;-76
2021/09/14 00:48:23;;;;;;;;;6.33;5.67;;;;;20.40;60.90;100808.81;4983149;28;45488;-75
2021/09/14 00:50:49;;;;;;;;;8.00;8.00;;;;;20.37;60.82;100801.13;4990772;28;45363;-79
2021/09/14 00:53:15;;;;;;;;;7.33;6.00;;;;;20.30;61.26;100805.53;4992362;28;47335;-74
2021/09/14 00:55:41;;;;;;;;;5.67;5.67;;;;;20.28;61.44;100817.19;4980739;28;45507;-71
2021/09/14 00:58:06;;;;;;;;;11.67;6.67;;;;;20.25;61.50;100816.72;4985416;28;45442;-74
2021/09/14 01:00:32;;;;;;;;;7.00;7.00;;;;;20.21;61.47;100816.25;4989323;28;45366;-75
2021/09/14 01:02:57;;;;;;;;;5.33;5.33;;;;;20.15;61.45;100800.09;4982688;28;46140;-76
2021/09/14 01:05:23;;;;;;;;;11.00;10.00;;;;;20.10;61.73;100798.78;4980049;28;45634;-76
2021/09/14 01:07:49;;;;;;;;;14.67;12.00;;;;;20.07;61.81;100796.50;4981245;28;45616;-74
2021/09/14 01:10:14;;;;;;;;;11.67;10.33;;;;;20.06;61.75;100802.00;4978094;28;45466;-77
2021/09/14 01:12:40;;;;;;;;;8.00;8.00;;;;;20.05;61.83;100811.00;4982852;28;46154;-76
2021/09/14 01:15:07;;;;;;;;;9.33;7.33;;;;;20.03;62.37;100810.34;4981031;28;45532;-76
2021/09/14 01:17:33;;;;;;;;;8.33;8.33;;;;;20.04;62.66;100814.66;4988051;28;45450;-74
2021/09/14 01:19:58;;;;;;;;;8.67;8.00;;;;;20.05;62.89;100813.66;4993834;28;45421;-77
2021/09/14 01:22:30;;;;;;;;;6.00;6.00;;;;;20.04;63.11;100820.00;4993515;28;47983;-77
2021/09/14 01:24:57;;;;;;;;;7.67;7.00;;;;;20.05;62.70;100816.34;4994013;28;45440;-75
2021/09/14 01:27:22;;;;;;;;;7.67;6.33;;;;;20.05;63.22;100811.81;4994435;28;45362;-74
2021/09/14 01:30:21;;;;;;;;;7.67;7.00;;;;;20.05;63.12;100809.16;4982354;28;45231;-76
2021/09/14 01:32:44;;;;;;;;;9.67;7.33;;;;;20.04;63.00;100810.16;4983218;28;45423;-73
2021/09/14 01:35:30;;;;;;;;;7.33;7.33;;;;;20.05;63.01;100811.00;4994652;28;45254;-76
2021/09/14 01:37:56;;;;;;;;;7.00;7.00;;;;;20.05;63.17;100817.16;4993683;28;45517;-78
2021/09/14 01:40:22;;;;;;;;;8.67;8.67;;;;;20.07;63.28;100827.63;4981944;28;45382;-77
2021/09/14 01:42:48;;;;;;;;;9.33;5.33;;;;;20.08;63.19;100840.81;4992437;28;46354;-77
2021/09/14 01:45:14;;;;;;;;;9.33;8.67;;;;;20.11;63.17;100847.63;4992152;28;45456;-78
2021/09/14 01:47:41;;;;;;;;;9.00;8.00;;;;;20.14;63.75;100862.47;4993377;28;45477;-78
2021/09/14 01:50:09;;;;;;;;;9.00;7.00;;;;;20.13;63.59;100871.47;4994290;28;45361;-75
2021/09/14 01:52:35;;;;;;;;;9.33;8.00;;;;;20.13;63.83;100885.63;4997919;28;46086;-77
2021/09/14 01:55:03;;;;;;;;;8.33;7.67;;;;;20.14;63.70;100889.94;4991016;28;45307;-77
2021/09/14 01:57:33;;;;;;;;;6.00;6.00;;;;;20.13;63.35;100898.94;4986447;28;45416;-74
2021/09/14 02:00:00;;;;;;;;;8.00;8.00;;;;;20.13;63.48;100896.28;4994166;28;45306;-75
2021/09/14 02:05:04;;;;;;;;;1.00;0.00;;;;;20.10;63.92;100900.13;4997161;28;45463;-74
2021/09/14 02:58:50;;;;;;;;;9.00;8.33;;;;;19.57;66.56;100787.00;4983308;28;45549;-71
2021/09/14 03:01:16;;;;;;;;;10.00;10.00;;;;;19.49;66.79;100790.53;4969002;28;45243;-70
2021/09/14 03:03:45;;;;;;;;;11.00;10.00;;;;;19.44;67.46;100791.03;4980289;28;45809;-71
2021/09/14 03:06:11;;;;;;;;;9.67;9.67;;;;;19.39;67.65;100789.88;4960259;28;46185;-70
2021/09/14 03:08:42;;;;;;;;;10.00;9.00;;;;;19.29;67.77;100769.59;4959241;28;45454;-70
2021/09/14 03:11:10;;;;;;;;;12.00;11.00;;;;;19.18;68.14;100761.16;4958833;28;45622;-70
2021/09/14 03:13:41;;;;;;;;;7.33;7.33;;;;;19.12;68.43;100783.94;4959823;28;47207;-71
2021/09/14 03:16:08;;;;;;;;;10.00;8.00;;;;;19.07;68.20;100781.81;4962068;28;47196;-71
2021/09/14 03:18:34;;;;;;;;;7.00;6.00;;;;;19.07;68.55;100780.94;4969194;28;45548;-70
2021/09/14 03:21:00;;;;;;;;;12.00;10.00;;;;;19.06;68.38;100763.34;4959096;28;45540;-70
2021/09/14 03:23:26;;;;;;;;;10.00;9.00;;;;;19.01;68.69;100765.66;4974793;28;45485;-70
2021/09/14 03:25:51;;;;;;;;;14.67;10.67;;;;;18.99;68.88;100770.31;4959359;28;45428;-71
2021/09/14 03:28:17;;;;;;;;;10.00;8.33;;;;;19.00;69.32;100750.69;4959535;28;45219;-71
2021/09/14 03:30:43;;;;;;;;;11.67;10.33;;;;;18.96;69.29;100753.69;4959550;28;45171;-71
2021/09/14 03:33:09;;;;;;;;;9.00;8.33;;;;;18.91;69.46;100753.34;4959554;28;45564;-71
2021/09/14 03:35:35;;;;;;;;;10.33;9.33;;;;;18.88;70.02;100756.31;4972749;28;45510;-71
2021/09/14 03:38:00;;;;;;;;;9.00;8.00;;;;;18.89;70.24;100750.03;4961162;28;45326;-70
2021/09/14 03:40:26;;;;;;;;;8.67;8.67;;;;;18.91;69.93;100747.22;4968726;28;45343;-70
2021/09/14 03:42:51;;;;;;;;;9.67;7.67;;;;;18.90;69.86;100749.03;4967019;28;45382;-71
2021/09/14 03:45:16;;;;;;;;;9.00;8.00;;;;;18.88;70.17;100745.69;4959122;28;45611;-70
2021/09/14 03:47:42;;;;;;;;;10.00;8.00;;;;;18.85;70.00;100732.72;4972352;28;45523;-71
2021/09/14 03:50:08;;;;;;;;;11.00;7.33;;;;;18.80;70.16;100722.56;4957895;28;45486;-70
2021/09/14 03:52:33;;;;;;;;;8.67;8.67;;;;;18.76;70.27;100715.06;4958458;28;45540;-71
2021/09/14 03:54:58;;;;;;;;;12.33;10.00;;;;;18.71;70.45;100712.94;4960089;28;45462;-71
2021/09/14 03:57:24;;;;;;;;;11.00;10.00;;;;;18.67;70.65;100713.44;4969779;28;45480;-71
2021/09/14 03:59:49;;;;;;;;;9.00;9.00;;;;;18.67;70.71;100721.41;4973997;28;45365;-71
2021/09/14 04:02:30;;;;;;;;;11.33;10.00;;;;;18.63;70.70;100726.25;4966455;28;45324;-71
2021/09/14 04:10:11;;;;;;;;;8.67;7.00;;;;;18.62;71.16;100724.59;4960730;28;45441;-70
2021/09/14 04:12:36;;;;;;;;;8.00;8.00;;;;;18.64;71.08;100723.41;4966703;28;45517;-71
2021/09/14 04:15:02;;;;;;;;;8.33;8.33;;;;;18.63;71.15;100727.06;4959068;28;46989;-71
2021/09/14 04:17:28;;;;;;;;;7.33;7.33;;;;;18.68;71.00;100728.41;4959041;28;45752;-70
2021/09/14 04:19:53;;;;;;;;;12.67;10.67;;;;;18.71;70.91;100728.06;4958168;28;45577;-70
2021/09/14 04:22:18;;;;;;;;;11.33;9.00;;;;;18.72;70.32;100721.75;4962219;28;45483;-71
2021/09/14 04:24:44;;;;;;;;;7.33;7.00;;;;;18.72;71.17;100724.41;4967089;28;46044;-71
2021/09/14 04:27:10;;;;;;;;;13.00;10.00;;;;;18.76;71.38;100739.88;4964758;28;45491;-70
2021/09/14 04:29:36;;;;;;;;;8.67;8.67;;;;;18.80;71.58;100741.19;4956979;28;45302;-70
2021/09/14 04:32:02;;;;;;;;;11.33;9.67;;;;;18.83;71.78;100732.03;4971602;28;45503;-71
2021/09/14 04:34:28;;;;;;;;;14.33;12.67;;;;;18.87;71.97;100721.91;4962831;28;47488;-72
2021/09/14 04:36:53;;;;;;;;;14.00;11.67;;;;;18.91;71.92;100718.75;4960378;28;45484;-72
2021/09/14 04:39:19;;;;;;;;;11.33;11.33;;;;;18.94;71.79;100701.63;4961224;28;45790;-71
2021/09/14 04:41:45;;;;;;;;;9.33;7.67;;;;;18.94;72.00;100686.50;4959223;28;45295;-71
2021/09/14 04:44:11;;;;;;;;;14.00;9.00;;;;;18.90;71.68;100685.19;4958564;28;46054;-71
2021/09/14 04:46:37;;;;;;;;;11.00;10.00;;;;;18.85;71.86;100687.47;4957875;28;45381;-69
2021/09/14 04:49:03;;;;;;;;;8.00;7.00;;;;;18.87;72.14;100689.97;4958351;28;45416;-71
2021/09/14 04:51:28;;;;;;;;;10.33;10.33;;;;;18.78;71.97;100678.50;4958837;28;45447;-73
2021/09/14 04:53:53;;;;;;;;;12.00;10.33;;;;;18.68;72.16;100669.88;4984893;28;47314;-70
2021/09/14 04:56:19;;;;;;;;;14.33;10.33;;;;;18.56;72.73;100678.19;4959996;28;45503;-73
2021/09/14 04:58:46;;;;;;;;;11.00;11.00;;;;;18.51;72.60;100685.00;4961278;28;45339;-70
2021/09/14 05:01:15;;;;;;;;;13.00;10.33;;;;;18.43;73.09;100688.50;4968136;28;45373;-71
2021/09/14 05:03:40;;;;;;;;;12.33;11.33;;;;;18.37;74.42;100679.38;4966646;28;45385;-70
2021/09/14 05:06:05;;;;;;;;;11.33;10.33;;;;;18.37;74.23;100678.53;4959041;28;45484;-71
2021/09/14 05:08:31;;;;;;;;;11.67;11.67;;;;;18.37;74.41;100673.22;4956298;28;46135;-70
2021/09/14 05:10:58;;;;;;;;;13.67;10.00;;;;;18.35;74.04;100673.38;4960907;28;45406;-70
2021/09/14 05:13:23;;;;;;;;;11.67;10.33;;;;;18.38;74.92;100685.50;4961453;28;46064;-71
2021/09/14 05:15:49;;;;;;;;;13.00;10.33;;;;;18.41;75.14;100685.16;4964178;28;46272;-71
2021/09/14 05:18:14;;;;;;;;;13.00;13.00;;;;;18.41;74.80;100679.84;4963263;28;45455;-71
2021/09/14 05:20:42;;;;;;;;;11.00;9.00;;;;;18.45;75.71;100686.53;4961464;28;45424;-71
2021/09/14 05:23:13;;;;;;;;;11.67;11.00;;;;;18.49;74.95;100690.50;4963176;28;46985;-71
2021/09/14 05:25:40;;;;;;;;;7.33;7.00;;;;;18.51;74.88;100687.69;4963922;28;45420;-71
2021/09/14 05:28:05;;;;;;;;;11.33;9.33;;;;;18.55;75.00;100694.31;4964030;28;45370;-72
2021/09/14 05:30:31;;;;;;;;;12.67;11.00;;;;;18.58;74.44;100707.31;4968382;28;45912;-69
2021/09/14 05:32:56;;;;;;;;;16.33;10.67;;;;;18.61;74.81;100733.56;4960503;28;46064;-70
2021/09/14 05:35:28;;;;;;;;;9.33;9.33;;;;;18.64;74.66;100739.38;4962407;28;45526;-71
2021/09/14 05:37:55;;;;;;;;;15.67;12.67;;;;;18.67;74.16;100748.88;4960807;28;46083;-70
2021/09/14 05:40:20;;;;;;;;;10.67;10.00;;;;;18.70;74.08;100753.84;4962114;28;45484;-70
2021/09/14 05:42:46;;;;;;;;;9.67;7.00;;;;;18.71;73.92;100752.84;4975442;28;45468;-71
2021/09/14 05:45:11;;;;;;;;;20.67;17.00;;;;;18.75;73.86;100770.13;4966468;28;46031;-70
2021/09/14 05:47:36;;;;;;;;;12.00;10.00;;;;;18.78;73.39;100766.31;4961617;28;45382;-69
2021/09/14 05:50:02;;;;;;;;;8.67;8.67;;;;;18.80;73.19;100775.78;4963352;28;45345;-71
2021/09/14 05:52:28;;;;;;;;;9.67;8.00;;;;;18.84;73.52;100792.25;4962288;28;48194;-72
2021/09/14 05:54:53;;;;;;;;;9.33;8.00;;;;;18.87;73.28;100802.56;4963445;28;45279;-71
2021/09/14 05:57:18;;;;;;;;;9.00;7.00;;;;;18.85;73.33;100809.91;4963953;28;45444;-71
2021/09/14 05:59:43;;;;;;;;;9.00;9.00;;;;;18.90;73.88;100812.91;4960209;28;45487;-71
2021/09/14 06:02:09;;;;;;;;;8.00;7.67;;;;;18.94;73.55;100824.03;4963490;28;46141;-72
2021/09/14 06:04:34;;;;;;;;;7.67;7.67;;;;;18.98;73.43;100819.22;4964335;28;45234;-71
2021/09/14 06:06:59;;;;;;;;;12.67;10.67;;;;;18.98;73.54;100814.75;4964661;28;45589;-71
2021/09/14 06:09:25;;;;;;;;;10.00;10.00;;;;;18.96;73.51;100806.91;4978323;28;45516;-71
2021/09/14 06:11:50;;;;;;;;;12.00;11.00;;;;;18.99;74.10;100812.91;4960416;28;45360;-71
2021/09/14 06:14:15;;;;;;;;;12.67;10.67;;;;;18.99;74.00;100821.72;4972986;28;45274;-71
2021/09/14 06:16:41;;;;;;;;;13.00;11.00;;;;;19.03;74.26;100830.22;4964757;28;45169;-71
2021/09/14 06:19:06;;;;;;;;;11.00;11.00;;;;;19.05;74.33;100839.69;4965252;28;45271;-71
2021/09/14 06:21:37;;;;;;;;;12.33;11.00;;;;;19.09;74.14;100848.19;4964105;28;47098;-71
2021/09/14 06:24:03;;;;;;;;;14.67;11.00;;;;;19.10;73.68;100849.84;4992924;28;45463;-71
2021/09/14 06:26:28;;;;;;;;;10.33;10.33;;;;;19.10;74.84;100861.31;4970637;28;45469;-72
2021/09/14 06:28:53;;;;;;;;;9.67;8.00;;;;;19.12;74.76;100862.00;4972454;28;45528;-71
2021/09/14 06:31:20;;;;;;;;;11.00;9.00;;;;;19.14;74.52;100856.50;4967726;28;46302;-72
2021/09/14 06:33:45;;;;;;;;;7.00;7.00;;;;;19.14;74.64;100856.50;4978529;28;45473;-72
2021/09/14 06:36:10;;;;;;;;;13.33;8.00;;;;;19.16;75.03;100859.00;4961464;28;47250;-71
2021/09/14 06:38:37;;;;;;;;;13.33;9.67;;;;;19.16;74.76;100849.16;4959438;28;45394;-70
2021/09/14 06:41:03;;;;;;;;;9.33;7.00;;;;;19.16;74.80;100851.81;4963673;28;47123;-70
2021/09/14 06:43:28;;;;;;;;;15.67;10.00;;;;;19.17;74.73;100850.81;4963000;28;45406;-70
2021/09/14 06:45:53;;;;;;;;;12.33;10.00;;;;;19.20;75.40;100844.34;4960449;28;46013;-71
2021/09/14 06:48:19;;;;;;;;;12.00;10.67;;;;;19.17;75.22;100834.84;4960825;28;45409;-71
2021/09/14 06:50:44;;;;;;;;;14.67;11.00;;;;;19.16;75.39;100851.81;4958164;28;46123;-71
2021/09/14 06:53:11;;;;;;;;;13.00;11.00;;;;;19.15;75.56;100857.31;4966315;28;45427;-70
2021/09/14 06:55:36;;;;;;;;;12.33;10.33;;;;;19.14;75.21;100861.81;4968777;28;45399;-71
2021/09/14 06:58:01;;;;;;;;;10.33;9.33;;;;;19.12;75.48;100853.16;4967227;28;46261;-70
2021/09/14 07:00:27;;;;;;;;;14.67;9.67;;;;;19.09;76.14;100864.97;4963160;28;45981;-70
2021/09/14 07:02:52;;;;;;;;;11.67;11.67;;;;;19.09;76.74;100882.78;4960683;28;45466;-72
2021/09/14 07:05:19;;;;;;;;;14.00;11.00;;;;;19.09;76.78;100906.75;4973320;28;45460;-71
2021/09/14 07:07:44;;;;;;;;;15.33;14.00;;;;;19.05;76.52;100900.09;4966873;28;45630;-71
2021/09/14 07:10:10;;;;;;;;;15.00;11.67;;;;;18.99;76.36;100892.78;4964643;28;45505;-71
2021/09/14 07:12:36;;;;;;;;;20.33;13.00;;;;;18.96;76.59;100892.09;4960023;28;45231;-71
2021/09/14 07:15:03;;;;;;;;;11.33;11.33;;;;;18.93;77.16;100879.13;4960071;28;45315;-70
2021/09/14 07:17:28;;;;;;;;;15.33;13.00;;;;;18.89;76.78;100853.84;4961146;28;45430;-72
2021/09/14 07:19:54;;;;;;;;;14.67;12.33;;;;;18.83;76.70;100843.81;4959663;28;45450;-71
2021/09/14 07:22:19;;;;;;;;;14.67;14.67;;;;;18.75;77.11;100835.84;4969388;28;45329;-71
2021/09/14 07:24:44;;;;;;;;;15.00;13.67;;;;;18.66;77.14;100820.88;4974404;28;46072;-71
2021/09/14 07:27:10;;;;;;;;;20.00;18.33;;;;;18.59;77.48;100824.19;4990753;28;45488;-71
2021/09/14 07:29:36;;;;;;;;;14.00;13.67;;;;;18.51;77.94;100818.81;4964096;28;45323;-70
2021/09/14 07:32:02;;;;;;;;;16.33;12.33;;;;;18.47;78.41;100817.50;4964041;28;45882;-70
2021/09/14 07:34:29;;;;;;;;;17.33;14.00;;;;;18.44;78.47;100817.84;4966232;28;45399;-70
2021/09/14 07:36:54;;;;;;;;;16.33;11.00;;;;;18.41;78.78;100810.16;4961253;28;45382;-72
2021/09/14 07:39:20;;;;;;;;;16.67;13.67;;;;;18.42;78.97;100822.47;4960712;28;45434;-69
2021/09/14 07:41:45;;;;;;;;;11.00;10.33;;;;;18.45;79.15;100814.19;4958839;28;45434;-70
2021/09/14 07:44:10;;;;;;;;;13.67;10.67;;;;;18.47;79.02;100793.56;4958657;28;45376;-71
2021/09/14 07:46:36;;;;;;;;;18.00;14.67;;;;;18.47;79.12;100785.56;4960167;28;45272;-71
2021/09/14 07:49:01;;;;;;;;;10.00;10.00;;;;;18.48;79.40;100795.22;4960926;28;46175;-70
2021/09/14 07:51:27;;;;;;;;;12.00;10.00;;;;;18.50;79.22;100795.06;4961258;28;47064;-70
2021/09/14 07:53:52;;;;;;;;;13.33;10.00;;;;;18.53;79.73;100798.22;4961062;28;45346;-70
2021/09/14 07:56:17;;;;;;;;;12.00;10.00;;;;;18.59;79.85;100805.56;4957304;28;45550;-71
2021/09/14 07:58:43;;;;;;;;;11.33;9.00;;;;;18.69;79.89;100815.19;4975470;28;46032;-70
2021/09/14 08:01:08;;;;;;;;;11.00;11.00;;;;;18.79;79.86;100815.88;4964235;28;49122;-70
2021/09/14 08:03:33;;;;;;;;;9.00;9.00;;;;;18.88;79.86;100816.72;4960219;28;46209;-70
2021/09/14 08:05:59;;;;;;;;;10.67;7.00;;;;;18.99;79.45;100820.91;4966838;28;45362;-71
2021/09/14 08:08:24;;;;;;;;;12.00;10.00;;;;;19.10;79.53;100824.03;4960592;28;55439;-71
2021/09/14 08:10:49;;;;;;;;;12.33;10.00;;;;;19.23;79.62;100826.19;4961790;28;45456;-71
2021/09/14 08:13:15;;;;;;;;;11.67;9.00;;;;;19.34;79.84;100825.00;4961215;28;45515;-72
2021/09/14 08:15:40;;;;;;;;;12.33;10.00;;;;;19.46;79.59;100833.50;4961987;28;45485;-71
2021/09/14 08:18:05;;;;;;;;;11.00;9.67;;;;;19.56;78.87;100838.63;4959761;28;46078;-70
2021/09/14 08:20:31;;;;;;;;;13.67;12.00;;;;;19.64;79.08;100838.59;4959771;28;45373;-72
2021/09/14 08:22:56;;;;;;;;;10.67;10.00;;;;;19.71;79.11;100844.91;4963365;28;45499;-70
2021/09/14 08:25:22;;;;;;;;;12.00;11.33;;;;;19.76;79.15;100845.22;4971566;28;45314;-71
2021/09/14 08:27:47;;;;;;;;;15.67;14.00;;;;;19.83;79.21;100845.41;4968912;28;45854;-71
2021/09/14 08:30:13;;;;;;;;;14.33;12.00;;;;;19.90;78.23;100843.72;4959080;28;45472;-70
2021/09/14 08:32:38;;;;;;;;;11.67;11.00;;;;;19.93;78.49;100838.03;4956654;28;45369;-71
2021/09/14 08:35:04;;;;;;;;;11.33;10.00;;;;;20.02;78.44;100833.50;4979666;28;45496;-71
2021/09/14 08:37:29;;;;;;;;;12.00;11.00;;;;;20.08;78.03;100835.50;4963564;28;45298;-71
2021/09/14 08:39:54;;;;;;;;;11.67;11.67;;;;;20.14;77.95;100839.28;4958361;28;45605;-71
2021/09/14 08:42:20;;;;;;;;;14.00;12.33;;;;;20.19;77.42;100839.59;4958814;28;45598;-71
2021/09/14 08:44:46;;;;;;;;;14.00;12.33;;;;;20.28;77.53;100853.72;4977386;28;45654;-71
2021/09/14 08:47:11;;;;;;;;;13.33;12.00;;;;;20.34;77.09;100853.00;4957767;28;46518;-71
2021/09/14 08:49:36;;;;;;;;;12.33;11.00;;;;;20.38;77.40;100864.16;4963125;28;45249;-72
2021/09/14 08:52:03;;;;;;;;;14.00;10.00;;;;;20.40;76.79;100851.47;4966930;28;45236;-70
2021/09/14 08:54:29;;;;;;;;;12.33;12.33;;;;;20.43;77.24;100862.66;4969000;28;45513;-71
2021/09/14 08:56:54;;;;;;;;;14.00;12.67;;;;;20.47;76.78;100868.44;4958519;28;45369;-71
2021/09/14 08:59:31;;;;;;;;;13.67;13.00;;;;;20.53;76.65;100878.41;4956443;28;45540;-70
2021/09/14 09:02:02;;;;;;;;;15.00;12.33;;;;;20.54;76.71;100879.25;4958421;28;45555;-70
2021/09/14 09:04:27;;;;;;;;;9.00;9.00;;;;;20.56;76.91;100887.91;4963601;28;45420;-71
2021/09/14 09:06:52;;;;;;;;;10.00;10.00;;;;;20.58;77.20;100881.38;4958114;28;45962;-72
2021/09/14 09:09:19;;;;;;;;;10.00;10.00;;;;;20.64;76.69;100885.19;4957182;28;45311;-72
2021/09/14 09:12:03;;;;;;;;;12.00;12.00;;;;;20.71;76.57;100880.84;4957567;28;45508;-70
2021/09/14 09:14:43;;;;;;;;;10.67;10.67;;;;;20.76;77.12;100883.00;4974280;28;45597;-70
2021/09/14 09:17:16;;;;;;;;;10.67;9.33;;;;;20.87;76.42;100893.22;4961786;28;45553;-69
2021/09/14 09:19:52;;;;;;;;;10.33;9.67;;;;;20.93;76.29;100887.19;4961142;28;45369;-71
2021/09/14 09:22:18;;;;;;;;;12.33;10.67;;;;;21.00;76.30;100878.47;4960929;28;45816;-72
2021/09/14 09:24:48;;;;;;;;;9.67;9.00;;;;;21.08;76.43;100883.72;4961337;28;45512;-71
2021/09/14 09:27:16;;;;;;;;;12.00;11.00;;;;;21.12;75.79;100877.03;4959874;28;47036;-71
2021/09/14 09:29:42;;;;;;;;;13.33;12.33;;;;;21.15;75.66;100886.50;4957990;28;45471;-71
2021/09/14 09:32:07;;;;;;;;;13.33;13.00;;;;;21.17;75.87;100882.66;4956448;28;45379;-70
2021/09/14 09:34:33;;;;;;;;;11.00;10.00;;;;;21.19;75.16;100877.97;4957879;28;45486;-71
2021/09/14 09:37:09;;;;;;;;;17.67;14.33;;;;;21.21;76.16;100875.13;4961116;28;46877;-70
2021/09/14 09:39:44;;;;;;;;;12.33;11.00;;;;;21.24;76.22;100883.59;4959344;28;45185;-71
2021/09/14 09:42:09;;;;;;;;;14.67;11.00;;;;;21.27;75.79;100885.91;4960689;28;45485;-70
2021/09/14 09:44:35;;;;;;;;;14.00;10.00;;;;;21.33;75.70;100880.84;4960044;28;45292;-71
2021/09/14 09:47:01;;;;;;;;;14.33;11.00;;;;;21.38;75.70;100870.44;4960278;28;47137;-71
2021/09/14 09:49:27;;;;;;;;;13.67;12.00;;;;;21.44;75.97;100867.06;4960859;28;45476;-72
2021/09/14 09:51:54;;;;;;;;;10.33;10.33;;;;;21.52;75.62;100863.47;4960565;28;45389;-72
2021/09/14 09:54:20;;;;;;;;;11.00;11.00;;;;;21.57;74.61;100864.59;4960256;28;45323;-73
2021/09/14 09:56:48;;;;;;;;;10.00;10.00;;;;;21.64;74.48;100855.84;4959231;28;45544;-72
2021/09/14 09:59:14;;;;;;;;;12.00;10.67;;;;;21.68;74.13;100859.81;4963312;28;45424;-72
2021/09/14 10:01:42;;;;;;;;;16.33;15.33;;;;;21.71;74.37;100859.47;4975026;28;45471;-72
2021/09/14 10:04:10;;;;;;;;;19.67;16.33;;;;;21.74;73.95;100856.41;4971900;28;45445;-72
2021/09/14 10:06:41;;;;;;;;;16.33;13.67;;;;;21.80;74.26;100849.50;4963703;28;45494;-72
2021/09/14 10:09:07;;;;;;;;;15.67;14.00;;;;;21.89;73.64;100859.91;4973052;28;45534;-71
2021/09/14 10:11:35;;;;;;;;;15.00;14.00;;;;;21.98;73.98;100866.00;4958326;28;45419;-71
2021/09/14 10:14:09;;;;;;;;;19.00;13.00;;;;;22.07;73.54;100864.06;4960759;28;45413;-70
2021/09/14 10:16:38;;;;;;;;;12.33;12.00;;;;;22.18;73.29;100871.59;4960713;28;45551;-70
2021/09/14 10:19:13;;;;;;;;;16.00;12.00;;;;;22.24;72.83;100857.47;4960737;28;45523;-72
2021/09/14 10:21:39;;;;;;;;;12.00;10.00;;;;;22.33;72.88;100860.88;4960330;28;45588;-71
2021/09/14 10:24:05;;;;;;;;;13.00;9.67;;;;;22.39;72.37;100859.31;4961247;28;45590;-73
2021/09/14 10:26:33;;;;;;;;;11.33;11.00;;;;;22.44;72.52;100854.22;4961273;28;46056;-70
2021/09/14 10:28:58;;;;;;;;;11.67;10.67;;;;;22.46;72.56;100849.50;4963518;28;45476;-71
2021/09/14 10:31:30;;;;;;;;;17.33;13.67;;;;;22.50;72.65;100856.13;4963719;28;45791;-72
2021/09/14 10:34:03;;;;;;;;;11.33;10.33;;;;;22.57;71.95;100856.22;4967559;28;45604;-70
2021/09/14 10:36:30;;;;;;;;;11.00;11.00;;;;;22.62;71.65;100859.16;4971704;28;45698;-72
2021/09/14 10:38:55;;;;;;;;;10.00;10.00;;;;;22.67;71.44;100858.59;4961458;28;45252;-74
2021/09/14 10:41:21;;;;;;;;;13.33;10.00;;;;;22.72;69.81;100858.84;4959671;28;45453;-72
2021/09/14 10:43:57;;;;;;;;;14.00;11.00;;;;;22.79;69.95;100866.94;4961407;28;45252;-71
2021/09/14 10:46:24;;;;;;;;;11.33;9.00;;;;;22.85;69.69;100871.53;4963498;28;45472;-71
2021/09/14 10:48:52;;;;;;;;;9.00;8.33;;;;;22.90;70.09;100869.94;4963075;28;45509;-71
2021/09/14 10:51:18;;;;;;;;;9.33;9.33;;;;;22.94;69.15;100865.03;4962630;28;45438;-71
2021/09/14 10:53:59;;;;;;;;;10.00;8.33;;;;;22.98;69.10;100866.28;4960103;28;45343;-70
2021/09/14 10:56:26;;;;;;;;;10.33;7.33;;;;;22.98;68.53;100854.75;4974259;28;46520;-71
2021/09/14 10:58:52;;;;;;;;;13.00;11.00;;;;;22.99;70.03;100856.38;4986747;28;45301;-71
2021/09/14 11:01:25;;;;;;;;;11.67;9.67;;;;;23.01;69.34;100860.53;4970315;28;45446;-70
2021/09/14 11:04:10;;;;;;;;;12.67;8.00;;;;;23.05;69.87;100850.25;4959979;28;45395;-70
2021/09/14 11:06:37;;;;;;;;;12.33;11.00;;;;;23.10;69.79;100847.84;4959768;28;45508;-71
2021/09/14 11:09:05;;;;;;;;;12.00;10.33;;;;;23.14;69.48;100843.78;4960219;28;45433;-73
2021/09/14 11:11:31;;;;;;;;;11.67;11.67;;;;;23.20;68.56;100842.19;4958277;28;45358;-72
2021/09/14 11:13:57;;;;;;;;;11.33;9.67;;;;;23.21;68.16;100833.94;4960234;28;45434;-72
2021/09/14 11:16:22;;;;;;;;;11.33;8.67;;;;;23.28;67.21;100838.53;4959912;28;45719;-72
2021/09/14 11:18:48;;;;;;;;;10.00;9.00;;;;;23.30;68.12;100841.81;4965201;28;46135;-72
2021/09/14 11:21:19;;;;;;;;;13.00;11.00;;;;;23.34;68.37;100833.22;4961319;28;45749;-72
2021/09/14 11:23:48;;;;;;;;;14.33;11.33;;;;;23.39;69.09;100840.66;4977212;28;45569;-71
2021/09/14 11:26:15;;;;;;;;;10.33;9.00;;;;;23.49;68.37;100841.13;4972584;28;46167;-71
2021/09/14 11:28:53;;;;;;;;;11.67;10.00;;;;;23.61;68.88;100840.59;4965036;28;45580;-71
2021/09/14 11:31:18;;;;;;;;;13.00;9.67;;;;;23.70;67.76;100842.06;4963424;28;45547;-73
2021/09/14 11:33:44;;;;;;;;;11.00;11.00;;;;;23.78;67.28;100841.09;4964552;28;45386;-71
2021/09/14 11:36:11;;;;;;;;;11.00;9.33;;;;;23.83;66.03;100831.44;4963039;28;46563;-73
2021/09/14 11:38:37;;;;;;;;;9.33;9.33;;;;;23.93;66.38;100839.13;4968423;28;45608;-71
2021/09/14 11:41:08;;;;;;;;;12.00;9.33;;;;;23.99;65.94;100840.16;4976916;28;45394;-72
2021/09/14 11:43:35;;;;;;;;;9.67;7.33;;;;;24.03;64.56;100841.44;4972898;28;45522;-73
2021/09/14 11:46:20;;;;;;;;;11.67;8.00;;;;;24.03;63.97;100836.91;4969200;28;45455;-72
2021/09/14 11:48:58;;;;;;;;;10.33;8.33;;;;;24.05;65.12;100840.22;4968951;28;45464;-74
2021/09/14 11:51:26;;;;;;;;;9.00;8.00;;;;;24.09;64.08;100839.81;4970932;28;45540;-71
2021/09/14 11:53:52;;;;;;;;;9.67;8.00;;;;;24.11;62.47;100835.91;4959471;28;45595;-71
2021/09/14 11:56:19;;;;;;;;;6.67;6.00;;;;;24.11;62.91;100827.03;4972422;28;45502;-74
2021/09/14 11:58:48;;;;;;;;;10.00;10.00;;;;;24.11;62.81;100832.41;4959842;28;45413;-72
2021/09/14 12:01:15;;;;;;;;;7.00;6.00;;;;;24.10;62.80;100826.19;4958960;28;45413;-69
2021/09/14 12:03:48;;;;;;;;;9.67;8.67;;;;;24.07;62.66;100823.91;4959693;28;45304;-69
2021/09/14 12:06:22;;;;;;;;;10.67;10.00;;;;;24.08;63.10;100828.25;4961142;28;46366;-71
2021/09/14 12:08:47;;;;;;;;;10.33;8.00;;;;;24.09;62.63;100829.91;4972964;28;45429;-70
2021/09/14 12:11:27;;;;;;;;;7.00;7.00;;;;;24.11;62.42;100827.84;4958062;28;45870;-71
2021/09/14 12:14:01;;;;;;;;;9.00;8.33;;;;;24.14;62.44;100824.75;4983564;28;45560;-69
2021/09/14 12:16:28;;;;;;;;;7.00;4.00;;;;;24.18;62.77;100822.50;4966907;28;45579;-72